Terminal Aerodrome Forecast
Issued by NWS Pocatello, ID

Home | Current Version | Previous Version | Text Only | Print | Product List | Glossary On
Versions: 1 2 3 4 5 6 7 8 9 10 11 12 13
000
FTUS45 KPIH 202300
TAFBYI
TAF
KBYI 202340Z 2100/2124 20011KT P6SM FEW100
     FM210200 16008KT P6SM VCSH SCT080 BKN110
     FM210500 16010KT P6SM VCSH BKN090
     FM211000 25015G25KT P6SM -SHRA SCT040 BKN070 OVC090
     FM211900 27020G30KT P6SM SCT080=

USA.gov is the U.S. government's official web portal to all federal, state and local government web resources and services.